createdAt,value
2023-05-08T00:01:15.689Z,19.53
2023-05-08T00:03:42.174Z,19.04
2023-05-08T00:06:08.648Z,18.98
2023-05-08T00:08:35.056Z,18.82
2023-05-08T00:11:01.570Z,19.13
2023-05-08T00:13:28.014Z,19.07
2023-05-08T00:15:54.444Z,19.05
2023-05-08T00:18:21.248Z,19.01
2023-05-08T00:20:47.571Z,19.02
2023-05-08T00:23:13.979Z,18.89
2023-05-08T00:25:40.383Z,19.29
2023-05-08T00:28:06.763Z,18.98
2023-05-08T00:30:33.193Z,18.58
2023-05-08T00:32:59.608Z,18.59
2023-05-08T00:35:26.657Z,18.60
2023-05-08T00:37:53.569Z,18.72
2023-05-08T00:40:19.919Z,18.64
2023-05-08T00:42:46.305Z,18.25
2023-05-08T00:45:13.020Z,18.39
2023-05-08T00:47:39.393Z,18.53
2023-05-08T00:50:05.982Z,18.37
2023-05-08T00:52:32.513Z,18.76
2023-05-08T00:54:58.883Z,18.66
2023-05-08T00:57:25.317Z,18.46
2023-05-08T00:59:51.739Z,18.61
2023-05-08T01:02:18.218Z,18.67
2023-05-08T01:04:44.929Z,18.92
2023-05-08T01:07:11.297Z,19.06
2023-05-08T01:09:37.793Z,19.01
2023-05-08T01:12:04.205Z,19.13
2023-05-08T01:14:30.563Z,19.37
2023-05-08T01:16:57.210Z,19.20
2023-05-08T01:19:23.578Z,19.13
2023-05-08T01:21:50.396Z,19.22
2023-05-08T01:24:16.945Z,19.29
2023-05-08T01:26:43.351Z,19.12
2023-05-08T01:29:09.726Z,19.16
2023-05-08T01:31:36.124Z,19.18
2023-05-08T01:34:02.585Z,19.33
2023-05-08T01:36:28.948Z,19.38
2023-05-08T01:38:55.616Z,19.32
2023-05-08T01:41:22.519Z,19.38
2023-05-08T01:43:48.913Z,19.12
2023-05-08T01:46:15.416Z,18.98
2023-05-08T01:48:41.903Z,19.05
2023-05-08T01:51:08.398Z,19.04
2023-05-08T01:53:34.888Z,18.73
2023-05-08T01:56:01.446Z,18.61
2023-05-08T01:58:28.011Z,18.82
2023-05-08T02:00:54.479Z,18.72
2023-05-08T02:03:21.013Z,18.82
2023-05-08T02:05:47.459Z,18.59
2023-05-08T02:08:14.157Z,18.59
2023-05-08T02:10:40.524Z,18.54
2023-05-08T02:13:07.078Z,18.53
2023-05-08T02:15:35.967Z,18.59
2023-05-08T02:18:02.428Z,18.54
2023-05-08T02:20:28.895Z,18.68
2023-05-08T02:22:55.264Z,18.56
2023-05-08T02:25:21.709Z,18.40
2023-05-08T02:27:48.102Z,18.43
2023-05-08T02:30:14.676Z,18.65
2023-05-08T02:32:41.253Z,18.51
2023-05-08T02:35:07.657Z,18.55
2023-05-08T02:37:34.471Z,18.88
2023-05-08T02:40:00.891Z,18.56
2023-05-08T02:42:27.276Z,18.33
2023-05-08T02:44:53.691Z,18.36
2023-05-08T02:47:20.215Z,18.19
2023-05-08T02:49:46.819Z,18.02
2023-05-08T02:52:14.124Z,18.03
2023-05-08T02:54:43.368Z,17.83
2023-05-08T02:57:10.531Z,17.97
2023-05-08T02:59:37.831Z,18.22
2023-05-08T03:02:04.246Z,17.95
2023-05-08T03:04:31.880Z,17.74
2023-05-08T03:06:58.408Z,17.90
2023-05-08T03:09:26.312Z,18.17
2023-05-08T03:11:52.748Z,18.05
2023-05-08T03:14:19.380Z,18.09
2023-05-08T03:16:45.848Z,18.10
2023-05-08T03:19:12.602Z,18.11
2023-05-08T03:21:38.985Z,18.13
2023-05-08T03:24:05.385Z,18.07
2023-05-08T03:26:31.793Z,18.09
2023-05-08T03:28:58.206Z,17.96
2023-05-08T03:31:29.288Z,17.95
2023-05-08T03:33:55.815Z,17.98
2023-05-08T03:36:24.859Z,18.09
2023-05-08T03:38:51.354Z,18.06
2023-05-08T03:41:18.372Z,17.99
2023-05-08T03:43:44.768Z,18.05
2023-05-08T03:46:11.196Z,17.75
2023-05-08T03:48:37.699Z,17.78
2023-05-08T03:51:04.137Z,17.94
2023-05-08T03:53:33.265Z,17.86
2023-05-08T03:56:00.522Z,17.59
2023-05-08T03:58:26.979Z,17.64
2023-05-08T04:00:54.613Z,17.72
2023-05-08T04:03:21.362Z,18.01
2023-05-08T04:05:48.223Z,17.85
2023-05-08T04:08:14.816Z,17.72
2023-05-08T04:10:41.379Z,17.93
2023-05-08T04:13:08.144Z,17.80
2023-05-08T04:15:37.205Z,17.85
2023-05-08T04:18:03.593Z,17.65
2023-05-08T04:20:30.064Z,17.89
2023-05-08T04:22:56.436Z,17.92
2023-05-08T04:25:23.700Z,17.68
2023-05-08T04:27:51.393Z,17.73
2023-05-08T04:30:19.161Z,17.60
2023-05-08T04:32:46.884Z,17.66
2023-05-08T04:35:15.114Z,17.59
2023-05-08T04:37:43.634Z,17.98
2023-05-08T04:40:10.690Z,17.86
2023-05-08T04:42:39.443Z,17.53
2023-05-08T04:45:05.977Z,17.68
2023-05-08T04:47:32.647Z,17.77
2023-05-08T04:50:02.196Z,17.93
2023-05-08T04:52:29.758Z,17.65
2023-05-08T04:54:56.245Z,17.91
2023-05-08T04:57:22.622Z,17.84
2023-05-08T04:59:49.356Z,18.08
2023-05-08T05:02:16.077Z,18.15
2023-05-08T05:04:42.463Z,18.14
2023-05-08T05:07:10.009Z,18.31
2023-05-08T05:09:37.175Z,18.26
2023-05-08T05:12:04.371Z,18.06
2023-05-08T05:14:31.071Z,18.24
2023-05-08T05:16:57.773Z,18.46
2023-05-08T05:19:24.792Z,18.29
2023-05-08T05:21:51.155Z,18.35
2023-05-08T05:24:17.781Z,18.25
2023-05-08T05:26:44.205Z,18.26
2023-05-08T05:29:10.593Z,18.14
2023-05-08T05:31:37.469Z,18.31
2023-05-08T05:34:04.670Z,18.29
2023-05-08T05:36:31.118Z,18.38
2023-05-08T05:38:57.542Z,18.66
2023-05-08T05:41:24.406Z,18.62
2023-05-08T05:43:50.938Z,18.70
2023-05-08T05:46:18.132Z,18.77
2023-05-08T05:48:45.864Z,18.72
2023-05-08T05:51:13.025Z,18.91
2023-05-08T05:53:39.410Z,18.72
2023-05-08T05:56:06.121Z,18.59
2023-05-08T05:58:32.971Z,19.04
2023-05-08T06:01:01.098Z,18.96
2023-05-08T06:03:28.121Z,18.62
2023-05-08T06:05:55.866Z,18.64
2023-05-08T06:08:22.978Z,18.73
2023-05-08T06:10:49.395Z,18.79
2023-05-08T06:13:16.001Z,18.92
2023-05-08T06:15:42.627Z,18.72
2023-05-08T06:18:09.168Z,18.94
2023-05-08T06:20:36.023Z,18.74
2023-05-08T06:23:02.552Z,18.79
2023-05-08T06:25:28.980Z,18.67
2023-05-08T06:27:55.355Z,18.64
2023-05-08T06:30:21.737Z,18.64
2023-05-08T06:32:48.193Z,18.84
2023-05-08T06:35:18.410Z,18.84
2023-05-08T06:37:44.773Z,18.98
2023-05-08T06:40:12.641Z,18.93
2023-05-08T06:42:39.343Z,19.00
2023-05-08T06:45:06.388Z,19.13
2023-05-08T06:47:33.111Z,18.99
2023-05-08T06:49:59.565Z,18.93
2023-05-08T06:52:26.003Z,18.94
2023-05-08T06:54:52.408Z,18.92
2023-05-08T06:57:18.857Z,19.22
2023-05-08T06:59:45.361Z,19.03
2023-05-08T07:02:12.515Z,19.32
2023-05-08T07:04:38.998Z,19.28
2023-05-08T07:07:06.773Z,19.60
2023-05-08T07:09:33.187Z,19.47
2023-05-08T07:11:59.565Z,19.21
2023-05-08T07:14:25.907Z,19.28
2023-05-08T07:16:52.331Z,19.20
2023-05-08T07:19:20.506Z,19.21
2023-05-08T07:21:48.101Z,19.57
2023-05-08T07:24:14.493Z,19.69
2023-05-08T07:26:40.932Z,19.56
2023-05-08T07:29:08.151Z,19.75
2023-05-08T07:31:34.698Z,19.50
2023-05-08T07:34:01.109Z,19.47
2023-05-08T07:36:27.473Z,20.04
2023-05-08T07:38:53.910Z,20.33
2023-05-08T07:41:20.472Z,20.12
2023-05-08T07:43:47.087Z,20.51
2023-05-08T07:46:13.487Z,20.43
2023-05-08T07:48:39.872Z,20.62
2023-05-08T07:51:06.278Z,20.62
2023-05-08T07:53:32.614Z,20.65
2023-05-08T07:55:58.996Z,20.55
2023-05-08T07:58:25.609Z,20.83
2023-05-08T08:00:52.190Z,20.82
2023-05-08T08:03:18.625Z,20.92
2023-05-08T08:05:45.192Z,20.54
2023-05-08T08:08:11.721Z,20.98
2023-05-08T08:10:38.437Z,21.34
2023-05-08T08:13:05.404Z,21.28
2023-05-08T08:15:31.831Z,21.12
2023-05-08T08:17:58.250Z,21.50
2023-05-08T08:20:24.709Z,21.13
2023-05-08T08:22:51.084Z,21.12
2023-05-08T08:25:17.966Z,20.87
2023-05-08T08:27:44.342Z,20.87
2023-05-08T08:30:17.488Z,20.77
2023-05-08T08:32:44.450Z,21.09
2023-05-08T08:35:11.219Z,20.23
2023-05-08T08:37:37.970Z,19.99
2023-05-08T08:40:04.315Z,20.39
2023-05-08T08:42:31.571Z,20.66
2023-05-08T08:44:57.904Z,20.77
2023-05-08T08:47:24.340Z,20.75
2023-05-08T08:49:50.824Z,20.37
2023-05-08T08:52:17.928Z,20.47
2023-05-08T08:54:44.323Z,21.18
2023-05-08T08:57:10.968Z,21.58
2023-05-08T08:59:37.338Z,21.92
2023-05-08T09:02:04.034Z,21.88
2023-05-08T09:04:31.786Z,22.21
2023-05-08T09:06:58.545Z,22.26
2023-05-08T09:09:25.003Z,22.33
2023-05-08T09:11:51.367Z,22.00
2023-05-08T09:14:17.710Z,22.08
2023-05-08T09:16:44.251Z,21.66
2023-05-08T09:19:10.680Z,21.52
2023-05-08T09:21:37.093Z,22.06
2023-05-08T09:24:03.477Z,22.31
2023-05-08T09:26:32.244Z,22.85
2023-05-08T09:28:58.597Z,22.55
2023-05-08T09:31:25.341Z,23.04
2023-05-08T09:33:51.705Z,22.68
2023-05-08T09:36:18.068Z,23.07
2023-05-08T09:38:44.440Z,22.80
2023-05-08T09:41:11.114Z,22.51
2023-05-08T09:43:37.865Z,23.08
2023-05-08T09:46:25.933Z,23.10
2023-05-08T09:48:52.426Z,22.28
2023-05-08T09:51:18.910Z,22.54
2023-05-08T09:53:45.289Z,22.29
2023-05-08T09:56:11.631Z,22.42
2023-05-08T09:58:38.048Z,22.58
2023-05-08T10:01:04.453Z,22.66
2023-05-08T10:03:30.883Z,22.64
2023-05-08T10:05:57.625Z,22.45
2023-05-08T10:08:23.999Z,22.42
2023-05-08T10:10:50.407Z,22.53
2023-05-08T10:13:16.881Z,22.30
2023-05-08T10:15:43.417Z,22.05
2023-05-08T10:18:10.978Z,22.21
2023-05-08T10:20:37.455Z,22.24
2023-05-08T10:23:03.945Z,21.85
2023-05-08T10:25:30.366Z,22.22
2023-05-08T10:27:58.072Z,21.77
2023-05-08T10:30:24.474Z,21.86
2023-05-08T10:32:51.919Z,21.98
2023-05-08T10:35:18.360Z,21.28
2023-05-08T10:37:44.714Z,21.08
2023-05-08T10:40:11.506Z,21.13
2023-05-08T10:42:38.172Z,21.14
2023-05-08T10:45:04.672Z,21.11
2023-05-08T10:47:31.020Z,20.91
2023-05-08T10:49:57.410Z,21.09
2023-05-08T10:52:23.759Z,20.95
2023-05-08T10:54:50.197Z,21.33
2023-05-08T10:57:16.625Z,21.41
2023-05-08T10:59:42.987Z,21.72
2023-05-08T11:02:09.559Z,21.45
2023-05-08T11:04:36.194Z,21.82
2023-05-08T11:07:04.365Z,21.54
2023-05-08T11:09:30.816Z,21.39
2023-05-08T11:11:57.197Z,21.42
2023-05-08T11:14:23.517Z,21.91
2023-05-08T11:16:49.910Z,21.58
2023-05-08T11:19:16.317Z,21.83
2023-05-08T11:21:42.714Z,22.04
2023-05-08T11:24:09.116Z,21.84
2023-05-08T11:26:35.553Z,22.02
2023-05-08T11:29:02.015Z,21.96
2023-05-08T11:31:28.429Z,21.81
2023-05-08T11:33:55.026Z,21.66
2023-05-08T11:36:22.977Z,22.06
2023-05-08T11:38:49.385Z,22.17
2023-05-08T11:41:15.759Z,22.39
2023-05-08T11:43:42.108Z,22.40
2023-05-08T11:46:08.571Z,22.33
2023-05-08T11:48:35.008Z,22.11
2023-05-08T11:51:01.374Z,22.43
2023-05-08T11:53:27.875Z,22.36
2023-05-08T11:55:54.303Z,22.33
2023-05-08T11:58:20.797Z,22.86
2023-05-08T12:00:47.333Z,22.86
2023-05-08T12:03:14.020Z,23.20
2023-05-08T12:05:40.750Z,23.74
2023-05-08T12:08:07.239Z,23.24
2023-05-08T12:10:33.682Z,23.42
2023-05-08T12:13:00.379Z,23.76
2023-05-08T12:15:26.895Z,23.51
2023-05-08T12:17:53.267Z,22.88
2023-05-08T12:20:20.033Z,23.71
2023-05-08T12:22:46.703Z,23.66
2023-05-08T12:25:13.314Z,23.27
2023-05-08T12:27:39.850Z,23.20
2023-05-08T12:30:07.523Z,23.30
2023-05-08T12:32:33.968Z,22.98
2023-05-08T12:35:00.448Z,23.29
2023-05-08T12:37:26.829Z,23.26
2023-05-08T12:39:53.268Z,23.23
2023-05-08T12:42:19.645Z,23.30
2023-05-08T12:44:46.005Z,23.42
2023-05-08T12:47:12.392Z,23.43
2023-05-08T12:49:38.736Z,23.65
2023-05-08T12:52:05.205Z,23.40
2023-05-08T12:54:31.608Z,23.54
2023-05-08T12:56:58.131Z,23.52
2023-05-08T12:59:24.465Z,23.79
2023-05-08T13:01:51.071Z,24.05
2023-05-08T13:04:17.490Z,23.95
2023-05-08T13:06:44.008Z,23.90
2023-05-08T13:09:10.392Z,24.65
2023-05-08T13:11:38.426Z,24.28
2023-05-08T13:14:04.820Z,24.55
2023-05-08T13:16:31.308Z,24.66
2023-05-08T13:18:57.836Z,24.77
2023-05-08T13:21:25.911Z,24.38
2023-05-08T13:23:53.794Z,24.20
2023-05-08T13:26:21.484Z,24.21
2023-05-08T13:28:47.884Z,24.17
2023-05-08T13:31:14.283Z,24.32
2023-05-08T13:33:40.714Z,23.74
2023-05-08T13:36:07.055Z,23.67
2023-05-08T13:38:34.544Z,24.05
2023-05-08T13:41:01.162Z,24.17
2023-05-08T13:43:27.555Z,23.79
2023-05-08T13:45:54.030Z,24.09
2023-05-08T13:48:20.495Z,24.10
2023-05-08T13:50:46.857Z,24.02
2023-05-08T13:53:13.264Z,23.52
2023-05-08T13:55:39.724Z,23.33
2023-05-08T13:58:06.210Z,23.32
2023-05-08T14:00:32.868Z,23.99
2023-05-08T14:02:59.291Z,24.24
2023-05-08T14:05:25.884Z,23.79
2023-05-08T14:07:52.239Z,23.53
2023-05-08T14:10:18.599Z,23.79
2023-05-08T14:12:45.753Z,23.90
2023-05-08T14:15:12.496Z,23.96
2023-05-08T14:17:39.097Z,23.58
2023-05-08T14:20:05.573Z,24.03
2023-05-08T14:22:31.948Z,24.26
2023-05-08T14:24:58.317Z,24.20
2023-05-08T14:27:24.685Z,24.50
2023-05-08T14:29:53.473Z,24.87
2023-05-08T14:32:21.155Z,24.92
2023-05-08T14:34:48.054Z,24.70
2023-05-08T14:37:14.620Z,24.90
2023-05-08T14:39:41.032Z,25.00
2023-05-08T14:42:21.985Z,24.87
2023-05-08T14:44:49.638Z,24.72
2023-05-08T14:47:16.006Z,24.94
2023-05-08T14:49:42.398Z,24.82
2023-05-08T14:52:08.912Z,24.87
2023-05-08T14:54:35.524Z,24.65
2023-05-08T14:57:02.029Z,24.83
2023-05-08T14:59:28.471Z,24.50
2023-05-08T15:01:55.032Z,24.55
2023-05-08T15:04:21.664Z,24.55
2023-05-08T15:06:48.204Z,24.43
2023-05-08T15:09:16.499Z,24.33
2023-05-08T15:11:43.105Z,24.29
2023-05-08T15:14:09.483Z,24.32
2023-05-08T15:16:36.055Z,24.17
2023-05-08T15:19:02.444Z,24.26
2023-05-08T15:21:28.867Z,24.02
2023-05-08T15:23:55.295Z,24.33
2023-05-08T15:26:21.924Z,24.24
2023-05-08T15:28:48.292Z,24.41
2023-05-08T15:31:14.703Z,24.31
2023-05-08T15:33:44.721Z,23.91
2023-05-08T15:36:11.269Z,23.69
2023-05-08T15:38:37.655Z,23.97
2023-05-08T15:41:04.111Z,23.79
2023-05-08T15:43:30.696Z,23.48
2023-05-08T15:45:57.116Z,23.31
2023-05-08T15:48:23.497Z,23.40
2023-05-08T15:50:49.844Z,23.64
2023-05-08T15:53:16.164Z,23.06
2023-05-08T15:55:42.550Z,23.06
2023-05-08T15:58:08.935Z,23.11
2023-05-08T16:00:44.002Z,23.00
2023-05-08T16:03:11.613Z,22.96
2023-05-08T16:05:39.829Z,23.02
2023-05-08T16:08:06.287Z,22.96
2023-05-08T16:10:32.698Z,22.78
2023-05-08T16:12:59.108Z,23.12
2023-05-08T16:15:25.589Z,23.27
2023-05-08T16:17:51.961Z,23.33
2023-05-08T16:20:18.458Z,23.07
2023-05-08T16:22:44.976Z,22.91
2023-05-08T16:25:11.567Z,22.57
2023-05-08T16:27:38.085Z,22.50
2023-05-08T16:30:04.499Z,22.69
2023-05-08T16:32:30.864Z,22.48
2023-05-08T16:34:57.354Z,22.55
2023-05-08T16:37:23.761Z,22.10
2023-05-08T16:39:50.395Z,22.58
2023-05-08T16:42:18.898Z,22.55
2023-05-08T16:44:45.516Z,22.43
2023-05-08T16:47:12.622Z,22.55
2023-05-08T16:49:40.671Z,22.70
2023-05-08T16:52:07.404Z,22.69
2023-05-08T16:54:34.024Z,22.81
2023-05-08T16:57:00.485Z,21.73
2023-05-08T16:59:26.900Z,21.74
2023-05-08T17:01:53.419Z,22.15
2023-05-08T17:04:19.789Z,22.14
2023-05-08T17:06:46.174Z,22.06
2023-05-08T17:09:12.598Z,22.20
2023-05-08T17:11:38.940Z,22.13
2023-05-08T17:14:05.385Z,22.22
2023-05-08T17:16:31.941Z,22.29
2023-05-08T17:18:59.840Z,21.60
2023-05-08T17:21:26.806Z,22.06
2023-05-08T17:23:53.340Z,22.21
2023-05-08T17:26:20.157Z,22.19
2023-05-08T17:28:46.600Z,22.18
2023-05-08T17:31:14.540Z,22.43
2023-05-08T17:33:40.918Z,22.22
2023-05-08T17:36:07.278Z,21.93
2023-05-08T17:38:35.373Z,21.84
2023-05-08T17:41:01.924Z,21.98
2023-05-08T17:43:28.633Z,22.01
2023-05-08T17:45:55.079Z,22.15
2023-05-08T17:48:21.683Z,22.25
2023-05-08T17:50:48.198Z,22.44
2023-05-08T17:53:14.647Z,22.39
2023-05-08T17:55:41.292Z,22.42
2023-05-08T17:58:07.779Z,22.28
2023-05-08T18:00:34.111Z,22.23
2023-05-08T18:03:00.738Z,22.24
2023-05-08T18:05:27.157Z,22.10
2023-05-08T18:07:53.961Z,22.20
2023-05-08T18:10:21.070Z,22.34
2023-05-08T18:12:47.468Z,22.22
2023-05-08T18:15:14.010Z,22.27
2023-05-08T18:17:40.372Z,22.16
2023-05-08T18:20:07.846Z,22.08
2023-05-08T18:22:34.247Z,22.38
2023-05-08T18:25:00.781Z,22.56
2023-05-08T18:27:27.158Z,22.18
2023-05-08T18:29:53.522Z,22.17
2023-05-08T18:32:19.885Z,22.28
2023-05-08T18:34:46.260Z,22.05
2023-05-08T18:37:12.733Z,21.92
2023-05-08T18:39:39.108Z,21.88
2023-05-08T18:42:05.492Z,21.59
2023-05-08T18:44:31.906Z,21.49
2023-05-08T18:46:58.283Z,21.45
2023-05-08T18:49:24.651Z,21.42
2023-05-08T18:51:51.266Z,21.38
2023-05-08T18:54:17.685Z,21.26
2023-05-08T18:56:44.112Z,21.45
2023-05-08T18:59:10.736Z,21.25
2023-05-08T19:01:37.138Z,20.88
2023-05-08T19:04:04.282Z,20.74
2023-05-08T19:06:31.467Z,20.80
2023-05-08T19:08:57.904Z,20.65
2023-05-08T19:11:24.347Z,20.77
2023-05-08T19:13:51.798Z,20.66
2023-05-08T19:16:18.468Z,20.53
2023-05-08T19:18:45.154Z,20.61
2023-05-08T19:21:11.626Z,20.61
2023-05-08T19:23:41.894Z,20.62
2023-05-08T19:26:12.023Z,20.52
2023-05-08T19:28:42.891Z,20.42
2023-05-08T19:31:12.815Z,20.28
2023-05-08T19:33:40.381Z,20.42
2023-05-08T19:36:06.771Z,20.47
2023-05-08T19:38:33.231Z,20.63
2023-05-08T19:40:59.576Z,20.65
2023-05-08T19:43:26.438Z,20.55
2023-05-08T19:45:53.562Z,20.42
2023-05-08T19:48:20.635Z,20.49
2023-05-08T19:50:47.655Z,20.45
2023-05-08T19:53:14.104Z,20.33
2023-05-08T19:55:40.628Z,20.00
2023-05-08T19:58:07.070Z,20.16
2023-05-08T20:00:33.731Z,20.09
2023-05-08T20:03:00.259Z,20.07
2023-05-08T20:05:26.817Z,19.97
2023-05-08T20:07:53.322Z,20.35
2023-05-08T20:10:19.872Z,20.31
2023-05-08T20:12:46.667Z,20.94
2023-05-08T20:15:13.226Z,20.45
2023-05-08T20:17:39.923Z,20.24
2023-05-08T20:20:06.727Z,20.11
2023-05-08T20:22:34.153Z,20.12
2023-05-08T20:25:04.435Z,20.01
2023-05-08T20:27:32.473Z,19.96
2023-05-08T20:29:59.823Z,19.86
2023-05-08T20:32:26.548Z,19.39
2023-05-08T20:34:52.986Z,19.33
2023-05-08T20:37:19.366Z,19.42
2023-05-08T20:39:46.029Z,19.49
2023-05-08T20:42:12.751Z,19.41
2023-05-08T20:44:39.262Z,19.57
2023-05-08T20:47:05.607Z,19.55
2023-05-08T20:49:32.091Z,19.36
2023-05-08T20:51:58.560Z,19.57
2023-05-08T20:54:24.977Z,19.45
2023-05-08T20:56:51.498Z,19.34
2023-05-08T20:59:18.939Z,19.11
2023-05-08T21:01:46.748Z,19.26
2023-05-08T21:04:13.308Z,19.58
2023-05-08T21:06:39.812Z,19.84
2023-05-08T21:09:07.088Z,19.85
2023-05-08T21:11:33.667Z,19.27
2023-05-08T21:14:00.156Z,19.22
2023-05-08T21:16:27.159Z,19.28
2023-05-08T21:18:55.358Z,19.53
2023-05-08T21:21:23.179Z,19.42
2023-05-08T21:23:49.603Z,19.53
2023-05-08T21:26:15.999Z,19.16
2023-05-08T21:28:42.455Z,19.44
2023-05-08T21:31:08.960Z,19.38
2023-05-08T21:33:38.527Z,19.57
2023-05-08T21:36:04.928Z,19.14
2023-05-08T21:38:31.392Z,18.91
2023-05-08T21:40:57.830Z,19.01
2023-05-08T21:43:25.072Z,19.27
2023-05-08T21:45:53.443Z,19.20
2023-05-08T21:48:20.032Z,19.39
2023-05-08T21:50:46.413Z,19.12
2023-05-08T21:53:12.805Z,19.11
2023-05-08T21:55:39.195Z,18.99
2023-05-08T21:58:05.845Z,19.32
2023-05-08T22:00:32.275Z,19.26
2023-05-08T22:02:58.892Z,19.13
2023-05-08T22:05:25.311Z,19.20
2023-05-08T22:07:51.671Z,19.21
2023-05-08T22:10:18.127Z,19.32
2023-05-08T22:12:44.613Z,19.43
2023-05-08T22:15:25.498Z,19.22
2023-05-08T22:17:58.558Z,19.06
2023-05-08T22:20:24.961Z,18.96
2023-05-08T22:22:51.531Z,19.40
2023-05-08T22:25:18.156Z,19.27
2023-05-08T22:27:44.563Z,19.24
2023-05-08T22:30:10.985Z,18.99
2023-05-08T22:32:37.514Z,18.82
2023-05-08T22:35:03.879Z,19.07
2023-05-08T22:37:30.488Z,19.07
2023-05-08T22:39:56.895Z,18.88
2023-05-08T22:42:23.244Z,19.09
2023-05-08T22:44:49.684Z,19.08
2023-05-08T22:47:16.090Z,19.00
2023-05-08T22:49:42.554Z,18.77
2023-05-08T22:52:09.046Z,18.80
2023-05-08T22:54:35.490Z,18.60
2023-05-08T22:57:02.877Z,18.80
2023-05-08T22:59:29.263Z,18.73
2023-05-08T23:01:55.749Z,18.53
2023-05-08T23:04:22.322Z,18.57
2023-05-08T23:06:48.723Z,18.65
2023-05-08T23:09:15.178Z,18.69
2023-05-08T23:11:41.691Z,18.47
2023-05-08T23:14:08.093Z,18.64
2023-05-08T23:16:34.496Z,18.40
2023-05-08T23:19:00.955Z,19.03
2023-05-08T23:21:27.809Z,18.96
2023-05-08T23:23:54.480Z,18.99
2023-05-08T23:26:20.862Z,19.01
2023-05-08T23:28:47.236Z,19.06
2023-05-08T23:31:13.695Z,18.52
2023-05-08T23:33:40.078Z,18.75
2023-05-08T23:36:06.618Z,18.62
2023-05-08T23:38:33.065Z,18.95
2023-05-08T23:40:59.438Z,19.04
2023-05-08T23:43:25.920Z,18.85
2023-05-08T23:45:52.429Z,18.98
2023-05-08T23:48:18.815Z,18.75
2023-05-08T23:50:45.224Z,18.63
2023-05-08T23:53:11.785Z,18.73
2023-05-08T23:55:38.196Z,18.33
2023-05-08T23:58:04.609Z,18.56
